Time;durP1;ratioP1;P1;durP2;ratioP2;P2;SDS_P1;SDS_P2;PMS_P1;PMS_P2;Temp;Humidity;BMP_temperature;BMP_pressure;BME280_temperature;BME280_humidity;BME280_pressure;Samples;Min_cycle;Max_cycle;Signal;HPM_P1;HPM_P2
2021/05/27 00:00:10;;;;;;;3.67;2.78;;;;;;;;;;5094308;28;20182;-42
2021/05/27 00:02:36;;;;;;;3.95;2.63;;;;;;;;;;5079703;28;20182;-42
2021/05/27 00:05:04;;;;;;;3.65;2.55;;;;;;;;;;5087706;28;20250;-42
2021/05/27 00:07:30;;;;;;;3.55;2.58;;;;;;;;;;5093890;28;20166;-42
2021/05/27 00:09:56;;;;;;;3.85;2.88;;;;;;;;;;5095046;28;20172;-42
2021/05/27 00:12:22;;;;;;;3.55;2.50;;;;;;;;;;5093753;28;20169;-42
2021/05/27 00:14:48;;;;;;;2.92;2.30;;;;;;;;;;5087210;28;20529;-42
2021/05/27 00:17:15;;;;;;;4.63;2.78;;;;;;;;;;5074694;28;20191;-42
2021/05/27 00:19:41;;;;;;;2.95;2.50;;;;;;;;;;5082230;28;20190;-42
2021/05/27 00:22:07;;;;;;;5.35;2.80;;;;;;;;;;5093306;28;20173;-42
2021/05/27 00:24:33;;;;;;;2.90;2.20;;;;;;;;;;5094830;28;20209;-42
2021/05/27 00:26:59;;;;;;;3.28;2.55;;;;;;;;;;5085723;28;20205;-42
2021/05/27 00:29:25;;;;;;;4.00;2.67;;;;;;;;;;5089881;28;20541;-42
2021/05/27 00:31:51;;;;;;;3.92;2.33;;;;;;;;;;5094198;28;20166;-42
2021/05/27 00:34:17;;;;;;;3.03;2.40;;;;;;;;;;5094355;28;20512;-42
2021/05/27 00:36:43;;;;;;;3.13;2.10;;;;;;;;;;5094326;28;20338;-42
2021/05/27 00:39:09;;;;;;;2.17;1.95;;;;;;;;;;5083086;28;20506;-42
2021/05/27 00:41:35;;;;;;;2.38;2.05;;;;;;;;;;5056392;28;20214;-42
2021/05/27 00:44:01;;;;;;;2.80;2.08;;;;;;;;;;5074375;28;20198;-42
2021/05/27 00:46:27;;;;;;;4.22;2.50;;;;;;;;;;5092847;28;20227;-42
2021/05/27 00:49:00;;;;;;;2.65;2.03;;;;;;;;;;5103775;28;20205;-42
2021/05/27 00:51:27;;;;;;;2.50;2.05;;;;;;;;;;5079496;28;20252;-42
2021/05/27 00:53:53;;;;;;;2.88;2.25;;;;;;;;;;5074228;28;20546;-42
2021/05/27 00:56:19;;;;;;;2.65;1.88;;;;;;;;;;5082985;28;20192;-42
2021/05/27 00:58:46;;;;;;;2.50;2.17;;;;;;;;;;5076429;28;20174;-42
2021/05/27 01:01:12;;;;;;;2.65;2.08;;;;;;;;;;5077519;28;20206;-42
2021/05/27 01:03:38;;;;;;;3.38;1.98;;;;;;;;;;5093703;28;20206;-42
2021/05/27 01:06:04;;;;;;;2.45;2.20;;;;;;;;;;5094154;28;20223;-42
2021/05/27 01:08:30;;;;;;;2.97;1.90;;;;;;;;;;5081625;28;20262;-42
2021/05/27 01:10:57;;;;;;;2.42;1.92;;;;;;;;;;5077329;28;20166;-42
2021/05/27 01:13:26;;;;;;;1.75;1.58;;;;;;;;;;5077754;28;20250;-42
2021/05/27 01:15:53;;;;;;;2.85;1.88;;;;;;;;;;5088897;28;20182;-42
2021/05/27 01:18:22;;;;;;;2.10;1.60;;;;;;;;;;5080325;28;20193;-42
2021/05/27 01:20:49;;;;;;;3.42;1.88;;;;;;;;;;5077157;28;20181;-42
2021/05/27 01:23:15;;;;;;;2.30;1.80;;;;;;;;;;5077489;28;20202;-42
2021/05/27 01:25:43;;;;;;;3.03;1.90;;;;;;;;;;5089020;28;20240;-43
2021/05/27 01:28:09;;;;;;;2.15;1.70;;;;;;;;;;5089711;28;20595;-42
2021/05/27 01:30:35;;;;;;;2.47;1.83;;;;;;;;;;5096973;28;20571;-42
2021/05/27 01:33:01;;;;;;;1.55;1.45;;;;;;;;;;5097043;28;20174;-42
2021/05/27 01:35:27;;;;;;;2.30;1.58;;;;;;;;;;5097781;28;20181;-42
2021/05/27 01:37:54;;;;;;;1.83;1.55;;;;;;;;;;5096066;28;20177;-42
2021/05/27 01:40:21;;;;;;;1.92;1.55;;;;;;;;;;5077332;28;20549;-42
2021/05/27 01:42:47;;;;;;;2.17;1.63;;;;;;;;;;5081200;28;20182;-42
2021/05/27 01:45:14;;;;;;;1.95;1.50;;;;;;;;;;5097170;28;20255;-42
2021/05/27 01:47:41;;;;;;;1.63;1.50;;;;;;;;;;5096674;28;20177;-42
2021/05/27 01:50:08;;;;;;;2.63;1.80;;;;;;;;;;5108331;28;20616;-42
2021/05/27 01:52:34;;;;;;;1.83;1.40;;;;;;;;;;5088421;28;20575;-42
2021/05/27 01:55:00;;;;;;;2.20;1.70;;;;;;;;;;5097449;28;20537;-42
2021/05/27 01:57:26;;;;;;;1.73;1.35;;;;;;;;;;5096567;28;20248;-42
2021/05/27 01:59:52;;;;;;;1.52;1.35;;;;;;;;;;5096997;28;20174;-43
2021/05/27 02:02:18;;;;;;;1.63;1.33;;;;;;;;;;5095889;28;20212;-42
2021/05/27 02:04:44;;;;;;;2.03;1.50;;;;;;;;;;5096504;28;20264;-42
2021/05/27 02:07:12;;;;;;;1.50;1.40;;;;;;;;;;5096271;28;20545;-42
2021/05/27 02:09:38;;;;;;;1.42;1.30;;;;;;;;;;5097085;28;20166;-42
2021/05/27 02:12:04;;;;;;;1.63;1.30;;;;;;;;;;5091072;28;20197;-42
2021/05/27 02:14:30;;;;;;;1.45;1.10;;;;;;;;;;5076579;28;20178;-42
2021/05/27 02:16:57;;;;;;;1.63;1.25;;;;;;;;;;5092951;28;20497;-42
2021/05/27 02:19:23;;;;;;;1.70;1.10;;;;;;;;;;5093812;28;20189;-42
2021/05/27 02:21:49;;;;;;;1.27;1.10;;;;;;;;;;5095442;28;20453;-42
2021/05/27 02:24:15;;;;;;;1.60;1.50;;;;;;;;;;5096677;28;20193;-42
2021/05/27 02:26:41;;;;;;;2.25;1.50;;;;;;;;;;5096505;28;20567;-42
2021/05/27 02:29:07;;;;;;;1.83;1.40;;;;;;;;;;5080543;28;20554;-42
2021/05/27 02:31:33;;;;;;;1.20;1.10;;;;;;;;;;5075857;28;20193;-42
2021/05/27 02:33:59;;;;;;;2.13;1.40;;;;;;;;;;5082243;28;20325;-42
2021/05/27 02:36:26;;;;;;;1.40;1.30;;;;;;;;;;5096620;28;20227;-42
2021/05/27 02:38:52;;;;;;;1.48;1.38;;;;;;;;;;5082692;28;20208;-42
2021/05/27 02:41:19;;;;;;;1.92;1.20;;;;;;;;;;5091560;28;20523;-42
2021/05/27 02:43:45;;;;;;;2.17;1.20;;;;;;;;;;5095779;28;20197;-42
2021/05/27 02:46:11;;;;;;;1.33;1.10;;;;;;;;;;5096312;28;20178;-42
2021/05/27 02:48:37;;;;;;;1.15;1.05;;;;;;;;;;5103609;28;20259;-42
2021/05/27 02:51:03;;;;;;;1.20;1.10;;;;;;;;;;5101227;28;20284;-42
2021/05/27 02:53:29;;;;;;;1.65;1.00;;;;;;;;;;5096105;28;20268;-42
2021/05/27 02:55:55;;;;;;;1.35;1.20;;;;;;;;;;5078518;28;20269;-42
2021/05/27 02:58:21;;;;;;;1.33;1.05;;;;;;;;;;5086831;28;20203;-42
2021/05/27 03:00:48;;;;;;;1.13;1.02;;;;;;;;;;5074324;28;20632;-42
2021/05/27 03:03:20;;;;;;;1.30;1.20;;;;;;;;;;5076789;28;20210;-42
2021/05/27 03:05:46;;;;;;;1.08;0.98;;;;;;;;;;5095351;28;20257;-42
2021/05/27 03:08:12;;;;;;;1.00;1.00;;;;;;;;;;5095033;28;20585;-42
2021/05/27 03:10:38;;;;;;;1.05;0.95;;;;;;;;;;5094504;28;20253;-42
2021/05/27 03:13:05;;;;;;;1.20;1.10;;;;;;;;;;5094236;28;20178;-42
2021/05/27 03:15:31;;;;;;;1.13;0.90;;;;;;;;;;5095840;28;20505;-42
2021/05/27 03:17:59;;;;;;;1.00;1.00;;;;;;;;;;5094764;28;20169;-42
2021/05/27 03:20:25;;;;;;;1.13;0.95;;;;;;;;;;5095396;28;20173;-42
2021/05/27 03:22:51;;;;;;;1.23;1.13;;;;;;;;;;5092087;28;20178;-42
2021/05/27 03:25:17;;;;;;;1.50;1.00;;;;;;;;;;5094986;28;20278;-42
2021/05/27 03:27:43;;;;;;;1.23;0.98;;;;;;;;;;5092156;28;20185;-42
2021/05/27 03:30:09;;;;;;;1.25;0.88;;;;;;;;;;5075268;28;20178;-42
2021/05/27 03:32:35;;;;;;;1.40;1.00;;;;;;;;;;5074488;28;20167;-42
2021/05/27 03:35:01;;;;;;;0.90;0.90;;;;;;;;;;5091940;28;20246;-42
2021/05/27 03:37:29;;;;;;;1.15;1.00;;;;;;;;;;5092655;28;20188;-42
2021/05/27 03:40:12;;;;;;;0.98;0.88;;;;;;;;;;5074865;28;20175;-42
2021/05/27 03:42:42;;;;;;;0.82;0.70;;;;;;;;;;5091181;28;20177;-42
2021/05/27 03:45:13;;;;;;;1.23;1.00;;;;;;;;;;5094401;28;20205;-42
2021/05/27 03:47:39;;;;;;;1.08;1.08;;;;;;;;;;5076636;28;20182;-42
2021/05/27 03:50:09;;;;;;;1.48;0.90;;;;;;;;;;5077101;28;20197;-42
2021/05/27 03:52:36;;;;;;;1.02;0.93;;;;;;;;;;5073994;28;20166;-42
2021/05/27 03:55:02;;;;;;;1.02;0.95;;;;;;;;;;5087092;28;20182;-42
2021/05/27 03:57:28;;;;;;;1.17;0.90;;;;;;;;;;5093525;28;20208;-42
2021/05/27 04:02:46;;;;;;;0.52;0.52;;;;;;;;;;5080016;28;20220;-42
2021/05/27 04:07:57;;;;;;;0.85;0.82;;;;;;;;;;5094438;28;20188;-42
2021/05/27 04:10:24;;;;;;;0.98;0.90;;;;;;;;;;5081902;28;20232;-42
2021/05/27 04:12:50;;;;;;;2.03;0.98;;;;;;;;;;5081247;28;20170;-42
2021/05/27 04:15:24;;;;;;;0.90;0.80;;;;;;;;;;5094244;28;20469;-42
2021/05/27 04:18:01;;;;;;;0.73;0.70;;;;;;;;;;5089776;28;20476;-42
2021/05/27 04:20:28;;;;;;;0.90;0.90;;;;;;;;;;5087045;28;20185;-42
2021/05/27 04:22:54;;;;;;;0.80;0.73;;;;;;;;;;5094229;28;20190;-42
2021/05/27 04:25:22;;;;;;;0.70;0.70;;;;;;;;;;5094737;28;20205;-42
2021/05/27 04:27:49;;;;;;;0.70;0.60;;;;;;;;;;5093939;28;20218;-42
2021/05/27 04:30:16;;;;;;;0.80;0.80;;;;;;;;;;5094691;28;20541;-42
2021/05/27 04:35:41;;;;;;;0.73;0.73;;;;;;;;;;5090980;28;20174;-42
2021/05/27 04:38:14;;;;;;;1.65;0.90;;;;;;;;;;5093962;28;20185;-42
2021/05/27 04:40:42;;;;;;;0.98;0.88;;;;;;;;;;5080163;28;20186;-42
2021/05/27 04:43:08;;;;;;;0.80;0.77;;;;;;;;;;5092315;28;20174;-42
2021/05/27 04:45:34;;;;;;;1.10;0.70;;;;;;;;;;5098587;28;20215;-42
2021/05/27 04:48:04;;;;;;;0.90;0.90;;;;;;;;;;5097447;28;20559;-42
2021/05/27 04:50:30;;;;;;;0.63;0.63;;;;;;;;;;5100364;28;20192;-42
2021/05/27 04:52:56;;;;;;;0.80;0.70;;;;;;;;;;5097919;28;20178;-41
2021/05/27 04:55:22;;;;;;;1.08;0.80;;;;;;;;;;5097708;28;20502;-42
2021/05/27 04:57:48;;;;;;;0.70;0.63;;;;;;;;;;5091057;28;20212;-42
2021/05/27 05:00:15;;;;;;;0.77;0.70;;;;;;;;;;5097145;28;20220;-42
2021/05/27 05:02:42;;;;;;;0.73;0.70;;;;;;;;;;5097266;28;20231;-42
2021/05/27 05:05:08;;;;;;;0.70;0.70;;;;;;;;;;5097551;28;20220;-42
2021/05/27 05:07:35;;;;;;;0.65;0.60;;;;;;;;;;5094266;28;20209;-42
2021/05/27 05:10:01;;;;;;;0.60;0.60;;;;;;;;;;5077735;28;20154;-42
2021/05/27 05:12:27;;;;;;;0.70;0.70;;;;;;;;;;5080975;28;20190;-42
2021/05/27 05:14:53;;;;;;;0.57;0.57;;;;;;;;;;5077681;28;20178;-42
2021/05/27 05:17:19;;;;;;;0.63;0.63;;;;;;;;;;5082579;28;20173;-42
2021/05/27 05:19:45;;;;;;;0.80;0.63;;;;;;;;;;5078117;28;20605;-42
2021/05/27 05:22:11;;;;;;;0.80;0.80;;;;;;;;;;5090251;28;20181;-41
2021/05/27 05:24:37;;;;;;;0.70;0.70;;;;;;;;;;5097837;28;20250;-42
2021/05/27 05:27:03;;;;;;;0.80;0.70;;;;;;;;;;5085255;28;20179;-41
2021/05/27 05:29:29;;;;;;;0.50;0.50;;;;;;;;;;5092432;28;20185;-42
2021/05/27 05:31:55;;;;;;;0.65;0.63;;;;;;;;;;5097097;28;20475;-42
2021/05/27 05:34:21;;;;;;;0.60;0.60;;;;;;;;;;5096924;28;20541;-42
2021/05/27 05:36:47;;;;;;;0.63;0.63;;;;;;;;;;5097377;28;20591;-42
2021/05/27 05:39:13;;;;;;;0.60;0.60;;;;;;;;;;5096808;28;20185;-41
2021/05/27 05:41:41;;;;;;;1.00;0.90;;;;;;;;;;5096166;28;20262;-41
2021/05/27 05:44:07;;;;;;;5.35;1.70;;;;;;;;;;5097272;28;20200;-41
2021/05/27 05:46:33;;;;;;;2.67;1.60;;;;;;;;;;5096934;28;20426;-41
2021/05/27 05:48:59;;;;;;;4.07;1.60;;;;;;;;;;5085089;28;20209;-41
2021/05/27 05:51:25;;;;;;;3.47;1.73;;;;;;;;;;5079960;28;20204;-41
2021/05/27 05:53:51;;;;;;;3.40;1.63;;;;;;;;;;5094523;28;20197;-41
2021/05/27 05:56:17;;;;;;;2.63;1.52;;;;;;;;;;5522288;22;20580;-43
2021/05/27 05:58:43;;;;;;;3.38;1.65;;;;;;;;;;5063479;28;20546;-43
2021/05/27 06:01:09;;;;;;;2.25;1.60;;;;;;;;;;5054792;28;20237;-44
2021/05/27 06:03:35;;;;;;;2.88;1.30;;;;;;;;;;5055469;28;20195;-43
2021/05/27 06:06:01;;;;;;;3.65;1.40;;;;;;;;;;5056008;28;20187;-43
2021/05/27 06:08:27;;;;;;;3.08;1.48;;;;;;;;;;5056597;28;20440;-43
2021/05/27 06:10:54;;;;;;;2.65;1.33;;;;;;;;;;5056122;28;20468;-43
2021/05/27 06:13:20;;;;;;;1.58;1.20;;;;;;;;;;5056653;28;20164;-43
2021/05/27 06:15:46;;;;;;;4.47;1.60;;;;;;;;;;5046658;28;20454;-43
2021/05/27 06:18:12;;;;;;;2.30;1.13;;;;;;;;;;5042398;28;20175;-44
2021/05/27 06:20:38;;;;;;;2.05;1.55;;;;;;;;;;5054274;28;20254;-43
2021/05/27 06:23:05;;;;;;;2.15;1.20;;;;;;;;;;5056385;28;20492;-43
2021/05/27 06:25:32;;;;;;;2.65;1.30;;;;;;;;;;5055867;28;20175;-43
2021/05/27 06:27:59;;;;;;;7.13;1.35;;;;;;;;;;5055648;28;20560;-43
2021/05/27 06:30:28;;;;;;;1.77;1.20;;;;;;;;;;5055370;28;20221;-43
2021/05/27 06:32:54;;;;;;;3.83;1.23;;;;;;;;;;5053222;28;20218;-43
2021/05/27 06:35:21;;;;;;;2.67;1.08;;;;;;;;;;5055675;28;20492;-43
2021/05/27 06:37:47;;;;;;;3.72;1.50;;;;;;;;;;5048139;28;20212;-43
2021/05/27 06:40:16;;;;;;;4.50;1.77;;;;;;;;;;5041743;28;20171;-44
2021/05/27 06:42:43;;;;;;;6.85;1.33;;;;;;;;;;5050617;28;20226;-43
2021/05/27 06:45:09;;;;;;;4.38;1.42;;;;;;;;;;5035590;28;20191;-43
2021/05/27 06:47:35;;;;;;;5.28;1.63;;;;;;;;;;5054462;28;20190;-43
2021/05/27 06:50:01;;;;;;;3.47;1.52;;;;;;;;;;5053129;28;20179;-43
2021/05/27 06:52:27;;;;;;;2.38;1.45;;;;;;;;;;5055310;28;20176;-43
2021/05/27 06:54:54;;;;;;;3.47;1.58;;;;;;;;;;5051665;28;20179;-43
2021/05/27 06:57:20;;;;;;;6.75;2.03;;;;;;;;;;5051470;28;20600;-43
2021/05/27 06:59:46;;;;;;;4.60;1.48;;;;;;;;;;5042986;28;20546;-43
2021/05/27 07:02:12;;;;;;;3.60;1.85;;;;;;;;;;5055003;28;20182;-43
2021/05/27 07:04:38;;;;;;;2.60;1.20;;;;;;;;;;5038499;28;20200;-43
2021/05/27 07:07:04;;;;;;;5.40;1.40;;;;;;;;;;5041869;28;20202;-43
2021/05/27 07:09:30;;;;;;;2.45;1.20;;;;;;;;;;5054709;28;20234;-43
2021/05/27 07:11:56;;;;;;;3.03;1.05;;;;;;;;;;5040432;28;20180;-43
2021/05/27 07:14:22;;;;;;;5.78;1.38;;;;;;;;;;5035579;28;20194;-43
2021/05/27 07:16:49;;;;;;;4.50;1.48;;;;;;;;;;5047742;28;20184;-43
2021/05/27 07:19:15;;;;;;;1.42;1.13;;;;;;;;;;5035609;28;20199;-43
2021/05/27 07:21:41;;;;;;;2.15;1.63;;;;;;;;;;5049736;28;20219;-43
2021/05/27 07:24:07;;;;;;;2.88;1.50;;;;;;;;;;5045042;28;20372;-43
2021/05/27 07:26:33;;;;;;;2.13;1.27;;;;;;;;;;5048830;28;20270;-43
2021/05/27 07:29:00;;;;;;;1.73;1.23;;;;;;;;;;5043769;28;20250;-43
2021/05/27 07:31:27;;;;;;;4.75;1.40;;;;;;;;;;5045823;28;20176;-43
2021/05/27 07:33:53;;;;;;;2.90;1.30;;;;;;;;;;5051252;28;20187;-43
2021/05/27 07:36:19;;;;;;;1.88;1.30;;;;;;;;;;5052153;28;20267;-43
2021/05/27 07:38:45;;;;;;;2.40;1.40;;;;;;;;;;5054885;28;20266;-43
2021/05/27 07:41:11;;;;;;;2.92;1.27;;;;;;;;;;5054207;28;20198;-43
2021/05/27 07:43:37;;;;;;;3.22;1.30;;;;;;;;;;5054587;28;20264;-43
2021/05/27 07:46:04;;;;;;;3.42;1.35;;;;;;;;;;5053845;28;20226;-43
2021/05/27 07:48:30;;;;;;;4.60;1.50;;;;;;;;;;5045714;28;20230;-43
2021/05/27 07:50:57;;;;;;;2.17;1.10;;;;;;;;;;5032648;28;20182;-43
2021/05/27 07:53:23;;;;;;;1.80;1.13;;;;;;;;;;5034848;28;20546;-43
2021/05/27 07:55:50;;;;;;;1.85;1.10;;;;;;;;;;5054732;28;21730;-43
2021/05/27 07:58:16;;;;;;;1.33;1.17;;;;;;;;;;5054617;28;20191;-43
2021/05/27 08:00:42;;;;;;;2.83;1.52;;;;;;;;;;5054151;28;20245;-43
2021/05/27 08:03:08;;;;;;;2.10;1.40;;;;;;;;;;5054717;28;20541;-43
2021/05/27 08:05:35;;;;;;;3.15;1.30;;;;;;;;;;5036817;28;20182;-43
2021/05/27 08:08:01;;;;;;;1.67;1.27;;;;;;;;;;5034905;28;20187;-43
2021/05/27 08:10:28;;;;;;;1.23;0.93;;;;;;;;;;5034586;28;20554;-43
2021/05/27 08:12:53;;;;;;;2.72;1.10;;;;;;;;;;5034103;28;20214;-43
2021/05/27 08:15:19;;;;;;;3.03;1.45;;;;;;;;;;5042841;28;20576;-43
2021/05/27 08:17:46;;;;;;;2.63;1.20;;;;;;;;;;5052933;28;20193;-43
2021/05/27 08:20:12;;;;;;;1.73;1.13;;;;;;;;;;5049885;28;20611;-43
2021/05/27 08:22:39;;;;;;;2.08;1.15;;;;;;;;;;5037957;28;20188;-43
2021/05/27 08:25:06;;;;;;;1.63;1.08;;;;;;;;;;5045839;28;20214;-43
2021/05/27 08:27:32;;;;;;;2.35;1.10;;;;;;;;;;5051627;28;20183;-43
2021/05/27 08:29:59;;;;;;;1.63;1.10;;;;;;;;;;5039640;28;20179;-43
2021/05/27 08:32:26;;;;;;;3.88;1.38;;;;;;;;;;5033325;28;20164;-43
2021/05/27 08:34:52;;;;;;;2.00;1.17;;;;;;;;;;5043965;28;20265;-43
2021/05/27 08:37:18;;;;;;;3.15;1.30;;;;;;;;;;5053546;28;20218;-43
2021/05/27 08:39:43;;;;;;;1.83;1.10;;;;;;;;;;5053494;28;20179;-43
2021/05/27 08:42:09;;;;;;;1.42;1.00;;;;;;;;;;5053668;28;20179;-43
2021/05/27 08:44:37;;;;;;;3.40;1.20;;;;;;;;;;5046047;28;20464;-44
2021/05/27 08:47:03;;;;;;;2.25;1.17;;;;;;;;;;5034471;28;20183;-43
2021/05/27 08:49:30;;;;;;;1.67;1.08;;;;;;;;;;5044115;28;20172;-43
2021/05/27 08:51:56;;;;;;;1.10;1.00;;;;;;;;;;5046244;28;20278;-44
2021/05/27 08:54:22;;;;;;;2.35;1.00;;;;;;;;;;5047349;28;20271;-43
2021/05/27 08:56:48;;;;;;;2.47;1.20;;;;;;;;;;5047493;28;20520;-44
2021/05/27 08:59:14;;;;;;;1.55;1.20;;;;;;;;;;5053615;28;20190;-43
2021/05/27 09:01:59;;;;;;;2.85;1.05;;;;;;;;;;5053312;28;20183;-43
2021/05/27 09:26:08;;;;;;;5.35;1.40;;;;;;;;;;5046507;28;20202;-43
2021/05/27 09:28:36;;;;;;;5.53;1.10;;;;;;;;;;5053316;28;20590;-43
2021/05/27 09:31:03;;;;;;;5.15;1.30;;;;;;;;;;5055395;28;20175;-43
2021/05/27 09:33:31;;;;;;;4.40;1.58;;;;;;;;;;5052834;28;20183;-43
2021/05/27 09:36:01;;;;;;;6.40;1.95;;;;;;;;;;5057303;28;20203;-43
2021/05/27 09:38:30;;;;;;;3.83;1.77;;;;;;;;;;5056988;28;20214;-43
2021/05/27 09:40:56;;;;;;;4.90;1.40;;;;;;;;;;5056664;28;20221;-44
2021/05/27 09:43:24;;;;;;;2.13;1.27;;;;;;;;;;5054374;28;20206;-43
2021/05/27 09:46:05;;;;;;;3.97;1.13;;;;;;;;;;5056349;28;20194;-43
2021/05/27 09:48:31;;;;;;;3.65;1.45;;;;;;;;;;5056391;28;20167;-43
2021/05/27 09:50:59;;;;;;;4.25;1.58;;;;;;;;;;5055660;28;20190;-43
2021/05/27 09:53:26;;;;;;;1.85;1.00;;;;;;;;;;5054987;28;20164;-43
2021/05/27 09:55:53;;;;;;;4.38;1.20;;;;;;;;;;5056704;28;20187;-43
2021/05/27 09:58:20;;;;;;;6.35;1.40;;;;;;;;;;5056598;28;20171;-43
2021/05/27 10:00:47;;;;;;;2.55;1.10;;;;;;;;;;5056195;28;20176;-43
2021/05/27 10:03:33;;;;;;;1.80;1.30;;;;;;;;;;5047771;28;20167;-43
2021/05/27 10:06:17;;;;;;;3.22;1.50;;;;;;;;;;5045109;28;20541;-43
2021/05/27 10:08:49;;;;;;;4.05;1.45;;;;;;;;;;5056495;28;20171;-43
2021/05/27 10:11:16;;;;;;;6.05;1.40;;;;;;;;;;5054966;28;20182;-43
2021/05/27 10:13:42;;;;;;;5.40;1.45;;;;;;;;;;5044332;28;20252;-43
2021/05/27 10:16:10;;;;;;;7.32;1.55;;;;;;;;;;5056474;28;20450;-43
2021/05/27 10:18:37;;;;;;;9.60;1.50;;;;;;;;;;5056117;28;20191;-43
2021/05/27 10:21:06;;;;;;;2.08;1.27;;;;;;;;;;5056167;28;20439;-43
2021/05/27 10:23:32;;;;;;;6.38;1.70;;;;;;;;;;5052744;28;20211;-43
2021/05/27 10:25:58;;;;;;;4.38;1.23;;;;;;;;;;5056635;28;20186;-43
2021/05/27 10:28:25;;;;;;;4.50;1.02;;;;;;;;;;5055991;28;20192;-43
2021/05/27 10:30:51;;;;;;;2.63;1.10;;;;;;;;;;5055962;28;20177;-44
2021/05/27 10:33:20;;;;;;;1.95;1.15;;;;;;;;;;5055489;28;20186;-44
2021/05/27 10:35:54;;;;;;;1.65;1.02;;;;;;;;;;5056210;28;20225;-44
2021/05/27 10:38:43;;;;;;;2.80;1.17;;;;;;;;;;5056426;28;20189;-43
2021/05/27 10:41:41;;;;;;;4.25;1.40;;;;;;;;;;5055135;28;20168;-43
2021/05/27 10:44:10;;;;;;;1.10;1.00;;;;;;;;;;5044070;28;20218;-43
2021/05/27 10:46:42;;;;;;;1.10;0.75;;;;;;;;;;5055985;28;20206;-43
2021/05/27 10:49:08;;;;;;;1.95;1.10;;;;;;;;;;5055612;28;20175;-43
2021/05/27 10:51:46;;;;;;;3.90;1.20;;;;;;;;;;5054719;28;20182;-43
2021/05/27 10:54:16;;;;;;;2.33;1.15;;;;;;;;;;5056042;28;20167;-43
2021/05/27 10:56:49;;;;;;;2.92;1.20;;;;;;;;;;5055468;28;20558;-43
2021/05/27 10:59:16;;;;;;;2.33;1.25;;;;;;;;;;5056091;28;20210;-43
2021/05/27 11:01:42;;;;;;;2.22;1.35;;;;;;;;;;5053663;28;20186;-43
2021/05/27 11:04:26;;;;;;;4.53;1.05;;;;;;;;;;5054768;28;20207;-43
2021/05/27 11:07:10;;;;;;;1.38;0.80;;;;;;;;;;5051515;28;20424;-43
2021/05/27 11:09:38;;;;;;;2.92;1.00;;;;;;;;;;5055537;28;20160;-43
2021/05/27 11:12:10;;;;;;;3.83;1.17;;;;;;;;;;5053929;28;20171;-44
2021/05/27 11:14:38;;;;;;;2.20;1.25;;;;;;;;;;5054271;28;20183;-44
2021/05/27 11:17:08;;;;;;;5.90;1.50;;;;;;;;;;5055043;28;20217;-43
2021/05/27 11:27:41;;;;;;;3.25;1.40;;;;;;;;;;5047511;28;20207;-43
2021/05/27 11:30:14;;;;;;;1.83;1.02;;;;;;;;;;5048164;28;20231;-43
2021/05/27 11:32:40;;;;;;;5.35;1.17;;;;;;;;;;5039224;28;20575;-43
2021/05/27 11:35:06;;;;;;;3.38;1.25;;;;;;;;;;5037049;28;20203;-43
2021/05/27 11:37:39;;;;;;;5.10;1.40;;;;;;;;;;5054264;28;20203;-43
2021/05/27 11:40:07;;;;;;;3.38;1.30;;;;;;;;;;5046385;28;20178;-43
2021/05/27 11:42:33;;;;;;;2.83;1.30;;;;;;;;;;5039659;28;20179;-44
2021/05/27 11:45:01;;;;;;;2.88;1.20;;;;;;;;;;5048555;28;20493;-44
2021/05/27 11:47:30;;;;;;;18.95;4.53;;;;;;;;;;5036017;28;20180;-44
2021/05/27 11:50:02;;;;;;;110.88;23.83;;;;;;;;;;5035782;28;20179;-44
2021/05/27 11:52:28;;;;;;;191.32;38.22;;;;;;;;;;5049799;28;20261;-43
2021/05/27 11:54:56;;;;;;;204.32;42.60;;;;;;;;;;5050970;28;20225;-43
2021/05/27 11:57:22;;;;;;;185.82;40.13;;;;;;;;;;5054577;28;20189;-43
2021/05/27 12:00:00;;;;;;;155.10;33.60;;;;;;;;;;5053541;28;20190;-43
2021/05/27 12:02:43;;;;;;;142.40;33.15;;;;;;;;;;5046208;28;20179;-43
2021/05/27 12:05:28;;;;;;;104.88;25.55;;;;;;;;;;5048403;28;20533;-43
2021/05/27 12:08:00;;;;;;;103.78;25.48;;;;;;;;;;5054669;28;20185;-43
2021/05/27 12:10:49;;;;;;;88.38;22.77;;;;;;;;;;5054368;28;20223;-43
2021/05/27 12:13:16;;;;;;;78.15;19.05;;;;;;;;;;5032774;28;20188;-43
2021/05/27 12:15:43;;;;;;;73.60;18.60;;;;;;;;;;5045161;28;20217;-43
2021/05/27 12:18:12;;;;;;;66.78;17.95;;;;;;;;;;5054548;28;20178;-43
2021/05/27 12:20:39;;;;;;;64.43;16.10;;;;;;;;;;5054056;28;20229;-43
2021/05/27 12:23:12;;;;;;;64.40;16.50;;;;;;;;;;5053962;28;20202;-43
2021/05/27 12:25:39;;;;;;;66.20;17.83;;;;;;;;;;5054419;28;20202;-43
2021/05/27 12:28:12;;;;;;;61.78;15.07;;;;;;;;;;5054681;28;20254;-43
2021/05/27 12:30:39;;;;;;;58.08;15.43;;;;;;;;;;5053978;28;20221;-44
2021/05/27 12:33:07;;;;;;;48.33;13.85;;;;;;;;;;5053503;28;20446;-43
2021/05/27 12:35:37;;;;;;;50.47;14.40;;;;;;;;;;5054324;28;20171;-43
2021/05/27 12:38:04;;;;;;;48.45;13.88;;;;;;;;;;5054507;28;20250;-43
2021/05/27 12:40:33;;;;;;;46.60;13.32;;;;;;;;;;5054087;28;20167;-43
2021/05/27 12:43:01;;;;;;;45.17;14.30;;;;;;;;;;5042809;28;20176;-43
2021/05/27 12:45:29;;;;;;;45.83;12.65;;;;;;;;;;5034254;28;20196;-43
2021/05/27 12:48:05;;;;;;;45.00;12.88;;;;;;;;;;5036503;28;20251;-43
2021/05/27 12:50:32;;;;;;;39.95;11.88;;;;;;;;;;5053775;28;20155;-43
2021/05/27 12:52:59;;;;;;;38.50;12.20;;;;;;;;;;5043175;28;20250;-43
2021/05/27 12:55:28;;;;;;;33.78;10.70;;;;;;;;;;5034592;28;20168;-43
2021/05/27 12:57:59;;;;;;;30.67;11.55;;;;;;;;;;5041607;28;20195;-43
2021/05/27 13:00:26;;;;;;;30.95;10.38;;;;;;;;;;5033862;28;20250;-43
2021/05/27 13:03:06;;;;;;;30.95;11.10;;;;;;;;;;5042599;28;20187;-43
2021/05/27 13:05:33;;;;;;;34.67;10.77;;;;;;;;;;5056028;28;20203;-43
2021/05/27 13:08:03;;;;;;;32.40;10.77;;;;;;;;;;5057747;28;20492;-43
2021/05/27 13:10:30;;;;;;;28.77;9.65;;;;;;;;;;5056766;28;20434;-43
2021/05/27 13:12:56;;;;;;;29.02;9.90;;;;;;;;;;5056317;28;20815;-43
2021/05/27 13:15:22;;;;;;;30.02;10.07;;;;;;;;;;5056429;28;20633;-43
2021/05/27 13:18:01;;;;;;;25.42;9.80;;;;;;;;;;5058009;28;20213;-43
2021/05/27 13:20:27;;;;;;;24.90;9.65;;;;;;;;;;5057705;28;20159;-43
2021/05/27 13:22:53;;;;;;;35.92;10.27;;;;;;;;;;5050563;28;20184;-43
2021/05/27 13:25:19;;;;;;;24.48;9.27;;;;;;;;;;5038257;28;20199;-43
2021/05/27 13:27:50;;;;;;;24.08;8.90;;;;;;;;;;5057636;28;20174;-43
2021/05/27 13:30:17;;;;;;;27.30;9.75;;;;;;;;;;5057200;28;20173;-43
2021/05/27 13:32:44;;;;;;;25.45;9.05;;;;;;;;;;5045923;28;20201;-43
2021/05/27 13:35:17;;;;;;;24.65;8.95;;;;;;;;;;5057579;28;20168;-44
2021/05/27 13:37:45;;;;;;;27.15;9.57;;;;;;;;;;5057606;28;20553;-43
2021/05/27 13:40:12;;;;;;;23.40;8.65;;;;;;;;;;5057248;28;20807;-43
2021/05/27 13:42:38;;;;;;;22.55;7.88;;;;;;;;;;5056153;28;20233;-43
2021/05/27 13:45:17;;;;;;;21.33;7.88;;;;;;;;;;5057124;28;20206;-43
2021/05/27 13:47:44;;;;;;;20.27;7.97;;;;;;;;;;5056661;28;20218;-43
2021/05/27 13:50:10;;;;;;;19.85;7.57;;;;;;;;;;5037699;28;20545;-43
2021/05/27 13:52:38;;;;;;;18.90;7.63;;;;;;;;;;5053531;28;20210;-43
2021/05/27 13:55:04;;;;;;;17.70;7.20;;;;;;;;;;5056933;28;20190;-43
2021/05/27 13:57:30;;;;;;;22.25;7.68;;;;;;;;;;5057210;28;20203;-43
2021/05/27 13:59:56;;;;;;;22.33;7.68;;;;;;;;;;5057273;28;20257;-43
2021/05/27 14:02:22;;;;;;;19.67;7.13;;;;;;;;;;5041370;28;20184;-43
2021/05/27 14:04:48;;;;;;;16.30;7.68;;;;;;;;;;5043096;28;20207;-43
2021/05/27 14:07:14;;;;;;;13.93;6.28;;;;;;;;;;5038328;28;20171;-43
2021/05/27 14:09:40;;;;;;;15.65;7.15;;;;;;;;;;5057015;28;20186;-43
2021/05/27 14:12:07;;;;;;;19.40;6.70;;;;;;;;;;5047588;28;20435;-43
2021/05/27 14:14:33;;;;;;;16.23;7.00;;;;;;;;;;5049542;28;20183;-43
2021/05/27 14:17:02;;;;;;;15.10;6.78;;;;;;;;;;5055375;28;20213;-43
2021/05/27 14:19:29;;;;;;;13.20;6.22;;;;;;;;;;5056767;28;20202;-43
2021/05/27 14:21:54;;;;;;;12.65;6.32;;;;;;;;;;5045315;28;20192;-43
2021/05/27 14:24:20;;;;;;;14.23;6.22;;;;;;;;;;5039653;28;20202;-43
2021/05/27 14:26:47;;;;;;;18.17;6.25;;;;;;;;;;5056628;28;20185;-43
2021/05/27 14:29:13;;;;;;;14.52;5.97;;;;;;;;;;5039362;28;20179;-44
2021/05/27 14:31:39;;;;;;;16.27;6.05;;;;;;;;;;5055403;28;20266;-43
2021/05/27 14:34:06;;;;;;;10.95;5.35;;;;;;;;;;5055948;28;20258;-44
2021/05/27 14:36:32;;;;;;;14.95;6.68;;;;;;;;;;5056584;28;20209;-42
2021/05/27 14:38:58;;;;;;;13.00;5.80;;;;;;;;;;5056265;28;20175;-43
2021/05/27 14:41:25;;;;;;;11.23;5.07;;;;;;;;;;5049780;28;20186;-43
2021/05/27 14:43:51;;;;;;;13.43;5.32;;;;;;;;;;5050134;28;20218;-43
2021/05/27 14:46:17;;;;;;;10.80;4.93;;;;;;;;;;5051942;28;20178;-44
2021/05/27 14:48:43;;;;;;;12.38;5.32;;;;;;;;;;5047169;28;20172;-43
2021/05/27 14:51:09;;;;;;;11.40;5.28;;;;;;;;;;5039049;28;20226;-43
2021/05/27 14:53:35;;;;;;;12.15;5.78;;;;;;;;;;5056303;28;20167;-43
2021/05/27 14:56:01;;;;;;;10.63;5.38;;;;;;;;;;5055396;28;20191;-43
2021/05/27 14:58:28;;;;;;;10.98;4.68;;;;;;;;;;5038624;28;20229;-43
2021/05/27 15:00:55;;;;;;;9.73;4.80;;;;;;;;;;5054040;28;20175;-43
2021/05/27 15:03:21;;;;;;;9.93;4.85;;;;;;;;;;5047621;28;20185;-43
2021/05/27 15:05:47;;;;;;;9.88;4.90;;;;;;;;;;5055462;28;20231;-43
2021/05/27 15:08:13;;;;;;;10.80;4.82;;;;;;;;;;5055779;28;20189;-43
2021/05/27 15:10:39;;;;;;;9.98;4.68;;;;;;;;;;5055188;28;20171;-43
2021/05/27 15:13:06;;;;;;;12.45;5.07;;;;;;;;;;5055004;28;20214;-43
2021/05/27 15:15:32;;;;;;;9.32;4.78;;;;;;;;;;5055053;28;20209;-43
2021/05/27 15:17:58;;;;;;;9.48;4.25;;;;;;;;;;5055394;28;20205;-43